Portada
METAR-TAF:

METAR-TAF

Aeroports :

Conakry, Guinea

latitud: 09-34N, longitud: 013-37W, altitud: 26 m

Observació

L'informe es va fer fa 2 hores i 56 minuts, a les 10:00 UTC
Vent calma
Temperatura 29°C
Humitat 62%
Pressió 1014 hPa
Visibilitat: 5000 m
Escasses núvols a una alçada de 1500 ft
Núvols disperses a una alçada de 11000 ft
calitja

METAR: GUCY 131000Z 00000KT 5000 HZ FEW015 SCT110 29/21 Q1014 NOSIG

Hora: 12:56 (12:56 UTC)

Pronòstic

L'informe es va fer fa 19 hores i 56 minuts, a les 17:00 UTC
Pronòstic vàlid del 12 a les 18 UTC al 13 a les 24 UTC
Vent 6 kt del Oest/Nord-Oest
Visibilitat: 6000 m
calitja
Probabilitat 30%
l' 12 a les 23 UTC al 13 a les 03 UTC
Visibilitat: 4000 m
calitja
Evolucionant progressivament
l' 13 a les 05 UTC al 13 a les 09 UTC
Vent 2 kt amb direcció variable
Visibilitat: 3000 m
Escasses núvols a una alçada de 1500 ft
boirina

TAF: GUCY 121700Z 1218/1324 29006KT 6000 HZ NSC PROB30TEMPO 1223/1303 4000 HZ NSC BECMG 1305/1309 VRB02KT 3000 BR FEW015

Observacions i pronòstics meteorològics de més de 4000 aeroports (METAR i TAF).

Les estacions disponibles són els punts grocs i vermells al mapa.

Posi el ratolí al punt desitjat per veure el nom de l'estació.

Feu clic per veure les observacions i els pronòstics meteorològics.

Per canviar el mapa: feu clic els botons verds amb una creu de color negre per apropar; al botó verd amb un guió per allunyar la imatge; o en les fletxes verdes per a mapes adjacents.


METAR-TAF: